Time;durP1;ratioP1;P1;durP2;ratioP2;P2;SDS_P1;SDS_P2;PMS_P1;PMS_P2;Temp;Humidity;BMP_temperature;BMP_pressure;BME280_temperature;BME280_humidity;BME280_pressure;Samples;Min_cycle;Max_cycle;Signal;HPM_P1;HPM_P2
2021/12/24 00:00:16;;;;;;;;;;;5.80;99.90;;;;;;5105083;28;19923;-69
2021/12/24 00:02:43;;;;;;;;;;;5.90;99.90;;;;;;5092709;28;19934;-68
2021/12/24 00:05:11;;;;;;;;;;;5.90;99.90;;;;;;5098714;27;19932;-69
2021/12/24 00:07:41;;;;;;;;;;;5.90;99.90;;;;;;5097306;28;19934;-68
2021/12/24 00:10:08;;;;;;;;;;;5.90;99.90;;;;;;5098068;28;20445;-69
2021/12/24 00:12:38;;;;;;;;;;;5.90;99.90;;;;;;5103639;28;20022;-69
2021/12/24 00:15:25;;;;;;;;;;;5.90;99.90;;;;;;5097044;28;19965;-71
2021/12/24 00:18:00;;;;;;;;;;;5.90;99.90;;;;;;5099326;28;19933;-69
2021/12/24 00:35:04;;;;;;;;;;;5.80;99.90;;;;;;5095685;28;20006;-68
2021/12/24 00:37:06;;;;;;;;;;;5.80;99.90;;;;;;5096074;28;20007;-71
2021/12/24 00:39:37;;;;;;;;;;;5.90;99.90;;;;;;5091600;28;19927;-70
2021/12/24 00:42:04;;;;;;;;;;;5.90;99.90;;;;;;5091526;28;19920;-69
2021/12/24 00:44:31;;;;;;;;;;;5.80;99.90;;;;;;5091251;28;19928;-69
2021/12/24 00:46:58;;;;;;;;;;;5.80;99.90;;;;;;5106261;28;19920;-68
2021/12/24 00:49:24;;;;;;;;;;;5.80;99.90;;;;;;5099807;28;20015;-69
2021/12/24 00:57:21;;;;;;;;;;;5.80;99.90;;;;;;5088797;28;19920;-69
2021/12/24 00:59:48;;;;;;;;;;;5.70;99.90;;;;;;5101834;28;20063;-69
2021/12/24 01:02:17;;;;;;;;;;;5.70;99.90;;;;;;5100032;28;19920;-69
2021/12/24 01:04:44;;;;;;;;;;;5.70;99.90;;;;;;5097480;28;20018;-69
2021/12/24 01:07:11;;;;;;;;;;;5.70;99.90;;;;;;5102908;28;19934;-69
2021/12/24 01:09:38;;;;;;;;;;;5.60;99.90;;;;;;5096736;28;19920;-69
2021/12/24 01:12:05;;;;;;;;;;;5.60;99.90;;;;;;5102879;28;19920;-67
2021/12/24 01:14:32;;;;;;;;;;;5.50;99.90;;;;;;5100387;28;19926;-69
2021/12/24 01:17:17;;;;;;;;;;;5.50;99.90;;;;;;5098723;28;19967;-68
2021/12/24 01:19:46;;;;;;;;;;;5.50;99.90;;;;;;5096638;28;20007;-69
2021/12/24 01:25:07;;;;;;;;;;;5.50;99.90;;;;;;5097698;28;19930;-69
2021/12/24 01:39:02;;;;;;;;;;;5.50;99.90;;;;;;5094474;28;19923;-68
2021/12/24 01:44:18;;;;;;;;;;;5.50;99.90;;;;;;5099681;28;19919;-68
2021/12/24 01:46:47;;;;;;;;;;;5.50;99.90;;;;;;5093191;28;20394;-68
2021/12/24 01:49:14;;;;;;;;;;;5.50;99.90;;;;;;5104094;28;19972;-69
2021/12/24 01:51:40;;;;;;;;;;;5.50;99.90;;;;;;5093539;28;20007;-69
2021/12/24 01:54:10;;;;;;;;;;;5.60;99.90;;;;;;5091583;28;20023;-69
2021/12/24 01:56:42;;;;;;;;;;;5.60;99.90;;;;;;5102685;28;19924;-69
2021/12/24 01:59:08;;;;;;;;;;;5.60;99.90;;;;;;5108744;28;20420;-69
2021/12/24 02:01:35;;;;;;;;;;;5.70;99.90;;;;;;5103383;28;19942;-69
2021/12/24 02:04:11;;;;;;;;;;;5.70;99.90;;;;;;5100279;28;19927;-69
2021/12/24 02:06:40;;;;;;;;;;;5.70;99.90;;;;;;5106355;27;19951;-68
2021/12/24 02:09:10;;;;;;;;;;;5.80;99.90;;;;;;5095701;28;19920;-68
2021/12/24 02:11:38;;;;;;;;;;;5.80;99.90;;;;;;5098766;28;19920;-68
2021/12/24 02:14:06;;;;;;;;;;;5.80;99.90;;;;;;5103963;28;19962;-68
2021/12/24 02:16:52;;;;;;;;;;;5.80;99.90;;;;;;5097324;28;19997;-69
2021/12/24 02:30:20;;;;;;;;;;;5.80;99.90;;;;;;5105553;28;19920;-69
2021/12/24 02:32:46;;;;;;;;;;;5.70;99.90;;;;;;5102680;27;20317;-68
2021/12/24 02:35:13;;;;;;;;;;;5.70;99.90;;;;;;5100826;28;19920;-69
2021/12/24 02:37:40;;;;;;;;;;;5.60;99.90;;;;;;5096214;28;20067;-68
2021/12/24 02:40:07;;;;;;;;;;;5.60;99.90;;;;;;5100569;28;20354;-68
2021/12/24 02:42:37;;;;;;;;;;;5.70;99.90;;;;;;5100953;28;19926;-68
2021/12/24 02:45:04;;;;;;;;;;;5.70;99.90;;;;;;5095317;28;19923;-68
2021/12/24 02:55:19;;;;;;;;;;;6.00;99.90;;;;;;5105224;28;20595;-68
2021/12/24 02:57:45;;;;;;;;;;;6.00;99.90;;;;;;5098317;28;20342;-68
2021/12/24 03:00:15;;;;;;;;;;;6.10;99.90;;;;;;5098093;28;19920;-68
2021/12/24 03:02:44;;;;;;;;;;;6.10;99.90;;;;;;5092732;28;19920;-68
2021/12/24 03:05:12;;;;;;;;;;;6.10;99.90;;;;;;5097851;28;19984;-68
2021/12/24 03:07:39;;;;;;;;;;;6.20;99.90;;;;;;5100767;28;19928;-68
2021/12/24 03:10:11;;;;;;;;;;;6.20;99.90;;;;;;5110026;28;20312;-68
2021/12/24 03:12:38;;;;;;;;;;;6.20;99.90;;;;;;5091850;28;19967;-68
2021/12/24 03:15:06;;;;;;;;;;;6.30;99.90;;;;;;5099021;28;20281;-68
2021/12/24 03:17:33;;;;;;;;;;;6.30;99.90;;;;;;5104899;28;19926;-69
2021/12/24 03:20:07;;;;;;;;;;;6.40;99.90;;;;;;5095365;28;19926;-68
2021/12/24 03:25:21;;;;;;;;;;;6.50;99.90;;;;;;5106258;28;20597;-69
2021/12/24 03:27:47;;;;;;;;;;;6.60;99.90;;;;;;5091973;28;19959;-68
2021/12/24 03:30:14;;;;;;;;;;;6.60;99.90;;;;;;5101057;28;19930;-69
2021/12/24 03:32:41;;;;;;;;;;;6.60;99.90;;;;;;5105011;28;19920;-69
2021/12/24 03:35:11;;;;;;;;;;;6.70;99.90;;;;;;5102845;28;20010;-68
2021/12/24 03:37:40;;;;;;;;;;;6.70;99.90;;;;;;5096393;28;19926;-69
2021/12/24 03:40:06;;;;;;;;;;;6.70;99.90;;;;;;5102330;28;19919;-68
2021/12/24 03:42:37;;;;;;;;;;;6.70;99.90;;;;;;5092782;28;20018;-68
2021/12/24 03:47:56;;;;;;;;;;;6.80;99.90;;;;;;5104074;28;20007;-68
2021/12/24 03:50:27;;;;;;;;;;;6.80;99.90;;;;;;5099941;28;20159;-69
2021/12/24 03:53:04;;;;;;;;;;;6.80;99.90;;;;;;5094601;28;20010;-69
2021/12/24 03:55:31;;;;;;;;;;;6.80;99.90;;;;;;5099639;27;19939;-69
2021/12/24 03:57:58;;;;;;;;;;;6.90;99.90;;;;;;5091707;28;20614;-69
2021/12/24 04:00:31;;;;;;;;;;;6.90;99.90;;;;;;5100630;28;19919;-69
2021/12/24 04:02:58;;;;;;;;;;;6.90;99.90;;;;;;5107752;27;19928;-69
2021/12/24 04:05:25;;;;;;;;;;;6.90;99.90;;;;;;5100252;28;20215;-69
2021/12/24 04:07:51;;;;;;;;;;;6.90;99.90;;;;;;5096639;28;19919;-69
2021/12/24 04:10:39;;;;;;;;;;;7.00;99.90;;;;;;5103141;28;20070;-69
2021/12/24 04:13:07;;;;;;;;;;;7.00;99.90;;;;;;5099172;28;19927;-69
2021/12/24 04:15:34;;;;;;;;;;;7.00;99.90;;;;;;5091101;28;19920;-69
2021/12/24 04:18:02;;;;;;;;;;;7.00;99.90;;;;;;5091885;28;20006;-69
2021/12/24 04:25:59;;;;;;;;;;;7.00;99.90;;;;;;5099850;27;20307;-69
2021/12/24 04:28:31;;;;;;;;;;;7.00;99.90;;;;;;5092695;28;19920;-69
2021/12/24 04:31:02;;;;;;;;;;;7.00;99.90;;;;;;5101308;27;20378;-69
2021/12/24 04:33:38;;;;;;;;;;;7.00;99.90;;;;;;5101034;27;20599;-70
2021/12/24 05:03:36;;;;;;;;;;;6.90;99.90;;;;;;5093122;28;19919;-70
2021/12/24 05:06:25;;;;;;;;;;;6.90;99.90;;;;;;5098533;28;19998;-70
2021/12/24 05:09:07;;;;;;;;;;;7.00;99.90;;;;;;5090761;28;19943;-70
2021/12/24 05:11:34;;;;;;;;;;;7.00;99.90;;;;;;5089810;28;19927;-70
2021/12/24 05:14:01;;;;;;;;;;;6.90;99.90;;;;;;5104760;28;20381;-71
2021/12/24 05:16:41;;;;;;;;;;;6.90;99.90;;;;;;5096613;28;19920;-70
2021/12/24 05:21:42;;;;;;;;;;;6.90;99.90;;;;;;5094957;28;20382;-70
2021/12/24 05:24:16;;;;;;;;;;;6.90;99.90;;;;;;5093589;28;19931;-71
2021/12/24 05:26:44;;;;;;;;;;;6.90;99.90;;;;;;5102902;28;20002;-70
2021/12/24 05:29:15;;;;;;;;;;;6.90;99.90;;;;;;5103111;28;19926;-70
2021/12/24 05:31:48;;;;;;;;;;;6.90;99.90;;;;;;5092602;28;20003;-70
2021/12/24 05:34:17;;;;;;;;;;;6.90;99.90;;;;;;5099421;28;19927;-70
2021/12/24 05:36:45;;;;;;;;;;;6.90;99.90;;;;;;5108413;27;19923;-70
2021/12/24 05:39:12;;;;;;;;;;;6.90;99.90;;;;;;5095547;28;20359;-70
2021/12/24 05:41:39;;;;;;;;;;;6.90;99.90;;;;;;5095698;28;19920;-71
2021/12/24 05:44:09;;;;;;;;;;;6.90;99.90;;;;;;5101726;28;19926;-70
2021/12/24 05:46:37;;;;;;;;;;;6.90;99.90;;;;;;5110704;27;19927;-71
2021/12/24 05:49:04;;;;;;;;;;;6.80;99.90;;;;;;5099973;28;19930;-71
2021/12/24 05:51:33;;;;;;;;;;;6.80;99.90;;;;;;5109068;27;19975;-71
2021/12/24 05:54:00;;;;;;;;;;;6.90;99.90;;;;;;5099642;28;19923;-71
2021/12/24 05:56:27;;;;;;;;;;;6.90;99.90;;;;;;5096615;27;20316;-71
2021/12/24 05:58:54;;;;;;;;;;;6.90;99.90;;;;;;5106408;27;19998;-71
2021/12/24 06:01:23;;;;;;;;;;;6.90;99.90;;;;;;5094271;28;19924;-71
2021/12/24 06:03:50;;;;;;;;;;;6.90;99.90;;;;;;5101601;28;19920;-71
2021/12/24 06:06:17;;;;;;;;;;;6.90;99.90;;;;;;5095404;28;19942;-71
2021/12/24 06:08:44;;;;;;;;;;;6.90;99.90;;;;;;5096461;28;19926;-70
2021/12/24 06:11:13;;;;;;;;;;;6.80;99.90;;;;;;5094285;28;20469;-71
2021/12/24 06:13:40;;;;;;;;;;;6.80;99.90;;;;;;5095070;28;19999;-71
2021/12/24 06:16:08;;;;;;;;;;;6.80;99.90;;;;;;5092028;28;21421;-71
2021/12/24 06:18:38;;;;;;;;;;;6.80;99.90;;;;;;5097587;28;19924;-71
2021/12/24 06:21:05;;;;;;;;;;;6.70;99.90;;;;;;5100033;28;19920;-71
2021/12/24 06:23:32;;;;;;;;;;;6.70;99.90;;;;;;5102396;27;19950;-71
2021/12/24 06:25:59;;;;;;;;;;;6.70;99.90;;;;;;5085128;28;19920;-71
2021/12/24 06:28:26;;;;;;;;;;;6.60;99.90;;;;;;5094566;28;20016;-72
2021/12/24 06:30:53;;;;;;;;;;;6.60;99.90;;;;;;5099676;27;19928;-70
2021/12/24 06:33:20;;;;;;;;;;;6.50;99.90;;;;;;5099685;28;19923;-71
2021/12/24 06:35:47;;;;;;;;;;;6.50;99.90;;;;;;5105037;28;19926;-70
2021/12/24 06:38:14;;;;;;;;;;;6.40;99.90;;;;;;5103073;28;20006;-70
2021/12/24 06:40:41;;;;;;;;;;;6.40;99.90;;;;;;5094522;28;19920;-70
2021/12/24 06:43:07;;;;;;;;;;;6.40;99.90;;;;;;5092912;28;20363;-69
2021/12/24 06:45:34;;;;;;;;;;;6.40;99.90;;;;;;5093330;28;20377;-70
2021/12/24 06:48:02;;;;;;;;;;;6.40;99.90;;;;;;5103722;27;20087;-70
2021/12/24 06:50:33;;;;;;;;;;;6.30;99.90;;;;;;5094566;28;20345;-70
2021/12/24 06:53:00;;;;;;;;;;;6.20;99.90;;;;;;5118021;27;20356;-70
2021/12/24 06:55:28;;;;;;;;;;;6.20;99.90;;;;;;5103722;27;19979;-70
2021/12/24 06:57:55;;;;;;;;;;;6.10;99.90;;;;;;5099450;28;19930;-70
2021/12/24 07:00:23;;;;;;;;;;;6.10;99.90;;;;;;5100579;28;19919;-70
2021/12/24 07:02:50;;;;;;;;;;;6.10;99.90;;;;;;5120394;27;19930;-70
2021/12/24 07:05:20;;;;;;;;;;;6.00;99.90;;;;;;5092272;28;20501;-70
2021/12/24 07:07:49;;;;;;;;;;;6.00;99.90;;;;;;5093663;28;19919;-70
2021/12/24 07:10:16;;;;;;;;;;;6.00;99.90;;;;;;5092868;28;19920;-70
2021/12/24 07:12:43;;;;;;;;;;;6.00;99.90;;;;;;5094981;28;19927;-70
2021/12/24 07:15:10;;;;;;;;;;;6.10;99.90;;;;;;5094564;27;19955;-70
2021/12/24 07:17:37;;;;;;;;;;;6.10;99.90;;;;;;5091742;28;20412;-69
2021/12/24 07:20:04;;;;;;;;;;;6.10;99.90;;;;;;5093399;27;19948;-70
2021/12/24 07:22:30;;;;;;;;;;;6.20;99.90;;;;;;5088561;27;19920;-70
2021/12/24 07:24:57;;;;;;;;;;;6.20;99.90;;;;;;5087354;28;19923;-69
2021/12/24 07:27:25;;;;;;;;;;;6.30;99.90;;;;;;5085017;27;19919;-70
2021/12/24 07:29:52;;;;;;;;;;;6.30;99.90;;;;;;5093791;28;19942;-70
2021/12/24 07:32:19;;;;;;;;;;;6.40;99.90;;;;;;5088288;28;19966;-69
2021/12/24 07:34:45;;;;;;;;;;;6.40;99.90;;;;;;5093105;28;19924;-70
2021/12/24 07:37:12;;;;;;;;;;;6.50;99.90;;;;;;5086132;28;20658;-70
2021/12/24 07:39:39;;;;;;;;;;;6.50;99.90;;;;;;5086562;28;19924;-70
2021/12/24 07:42:05;;;;;;;;;;;6.50;99.90;;;;;;5096327;28;19926;-70
2021/12/24 07:44:34;;;;;;;;;;;6.50;99.90;;;;;;5092906;28;19919;-70
2021/12/24 07:47:03;;;;;;;;;;;6.60;99.90;;;;;;5090374;28;19927;-70
2021/12/24 07:49:32;;;;;;;;;;;6.60;99.90;;;;;;5086365;28;19963;-70
2021/12/24 07:54:30;;;;;;;;;;;6.60;99.90;;;;;;5085556;28;19950;-69
2021/12/24 07:56:57;;;;;;;;;;;6.60;99.90;;;;;;5088938;28;19930;-70
2021/12/24 07:59:35;;;;;;;;;;;6.60;99.90;;;;;;5091405;28;20310;-70
2021/12/24 08:02:01;;;;;;;;;;;6.70;99.90;;;;;;5100336;28;19928;-70
2021/12/24 08:04:28;;;;;;;;;;;6.70;99.90;;;;;;5099367;28;19919;-70
2021/12/24 08:06:55;;;;;;;;;;;6.70;99.90;;;;;;5091967;28;20062;-70
2021/12/24 08:09:21;;;;;;;;;;;6.60;99.90;;;;;;5098711;28;19926;-70
2021/12/24 08:11:48;;;;;;;;;;;6.60;99.90;;;;;;5093281;27;20003;-70
2021/12/24 08:14:15;;;;;;;;;;;6.60;99.90;;;;;;5095700;27;19919;-69
2021/12/24 08:16:43;;;;;;;;;;;6.60;99.90;;;;;;5096787;28;19927;-70
2021/12/24 08:19:11;;;;;;;;;;;6.60;99.90;;;;;;5098219;28;19927;-70
2021/12/24 08:21:37;;;;;;;;;;;6.60;99.90;;;;;;5091244;28;20887;-70
2021/12/24 08:24:05;;;;;;;;;;;6.60;99.90;;;;;;5100224;28;19926;-70
2021/12/24 08:26:32;;;;;;;;;;;6.70;99.90;;;;;;5093148;28;19927;-70
2021/12/24 08:28:59;;;;;;;;;;;6.60;99.90;;;;;;5093446;28;20036;-70
2021/12/24 08:31:29;;;;;;;;;;;6.70;99.90;;;;;;5089928;28;19919;-70
2021/12/24 08:33:58;;;;;;;;;;;6.60;99.90;;;;;;5088923;28;24707;-70
2021/12/24 08:36:25;;;;;;;;;;;6.70;99.90;;;;;;5094054;28;19931;-70
2021/12/24 08:38:51;;;;;;;;;;;6.60;99.90;;;;;;5091052;28;19943;-69
2021/12/24 08:41:18;;;;;;;;;;;6.70;99.90;;;;;;5086360;28;19931;-70
2021/12/24 08:43:45;;;;;;;;;;;6.70;99.90;;;;;;5092441;28;19946;-70
2021/12/24 08:46:11;;;;;;;;;;;6.70;99.90;;;;;;5090683;28;19928;-70
2021/12/24 08:48:38;;;;;;;;;;;6.70;99.90;;;;;;5084028;28;19972;-70
2021/12/24 08:51:05;;;;;;;;;;;6.80;99.90;;;;;;5092311;28;19930;-70
2021/12/24 08:53:32;;;;;;;;;;;6.90;99.90;;;;;;5097367;28;19923;-70
2021/12/24 08:55:59;;;;;;;;;;;6.90;99.90;;;;;;5097642;28;19928;-68
2021/12/24 08:58:26;;;;;;;;;;;7.00;99.90;;;;;;5092556;28;19941;-68
2021/12/24 09:00:54;;;;;;;;;;;7.10;99.90;;;;;;5089239;28;19928;-69
2021/12/24 09:03:21;;;;;;;;;;;7.20;99.90;;;;;;5084304;28;20030;-69
2021/12/24 09:05:47;;;;;;;;;;;7.30;99.90;;;;;;5089892;28;19924;-69
2021/12/24 09:08:14;;;;;;;;;;;7.30;99.90;;;;;;5090849;28;19935;-68
2021/12/24 09:10:41;;;;;;;;;;;7.50;99.90;;;;;;5093075;28;19931;-69
2021/12/24 09:13:08;;;;;;;;;;;7.60;99.90;;;;;;5085870;28;19928;-69
2021/12/24 09:15:35;;;;;;;;;;;7.70;99.90;;;;;;5104024;28;19951;-69
2021/12/24 09:18:03;;;;;;;;;;;7.80;99.90;;;;;;5095282;28;20338;-69
2021/12/24 09:20:37;;;;;;;;;;;7.70;99.90;;;;;;5094788;28;19927;-69
2021/12/24 09:23:04;;;;;;;;;;;7.70;99.90;;;;;;5105970;27;20002;-69
2021/12/24 09:25:31;;;;;;;;;;;7.80;99.90;;;;;;5093731;28;19932;-69
2021/12/24 09:28:01;;;;;;;;;;;7.80;99.90;;;;;;5102239;28;20010;-69
2021/12/24 09:30:28;;;;;;;;;;;7.80;99.90;;;;;;5090289;28;20022;-69
2021/12/24 09:32:55;;;;;;;;;;;7.80;99.90;;;;;;5094815;28;19964;-69
2021/12/24 09:35:22;;;;;;;;;;;7.90;99.90;;;;;;5096468;28;19932;-69
2021/12/24 09:37:52;;;;;;;;;;;7.90;99.90;;;;;;5100064;28;20323;-69
2021/12/24 09:40:20;;;;;;;;;;;8.00;99.90;;;;;;5097947;28;20402;-70
2021/12/24 09:42:47;;;;;;;;;;;8.00;99.90;;;;;;5091916;28;20551;-70
2021/12/24 09:45:14;;;;;;;;;;;8.10;99.90;;;;;;5086753;28;19978;-69
2021/12/24 09:47:41;;;;;;;;;;;8.20;99.90;;;;;;5087170;28;19935;-70
2021/12/24 09:50:15;;;;;;;;;;;8.30;99.90;;;;;;5087145;28;19923;-70
2021/12/24 09:52:44;;;;;;;;;;;8.30;99.90;;;;;;5090355;28;19932;-71
2021/12/24 09:55:15;;;;;;;;;;;8.30;99.90;;;;;;5087321;28;20047;-70
2021/12/24 09:57:42;;;;;;;;;;;8.30;99.90;;;;;;5090239;28;19964;-70
2021/12/24 10:00:11;;;;;;;;;;;8.40;99.90;;;;;;5094914;28;19924;-70
2021/12/24 10:02:41;;;;;;;;;;;8.50;99.90;;;;;;5090355;28;19938;-70
2021/12/24 10:05:29;;;;;;;;;;;8.50;99.90;;;;;;5092125;28;20325;-71
2021/12/24 10:08:06;;;;;;;;;;;8.60;99.90;;;;;;5091401;28;19928;-71
2021/12/24 10:10:34;;;;;;;;;;;8.70;99.90;;;;;;5098973;28;19924;-71
2021/12/24 10:13:19;;;;;;;;;;;8.70;99.90;;;;;;5089684;28;19928;-71
2021/12/24 10:15:50;;;;;;;;;;;8.70;99.90;;;;;;5086783;28;19935;-71
2021/12/24 10:18:32;;;;;;;;;;;8.70;99.90;;;;;;5099898;28;20289;-71
2021/12/24 10:21:05;;;;;;;;;;;8.70;99.90;;;;;;5096755;28;20521;-71
2021/12/24 10:24:01;;;;;;;;;;;8.80;99.90;;;;;;5095865;28;19929;-71
2021/12/24 10:26:32;;;;;;;;;;;8.70;99.90;;;;;;5090361;27;19927;-72
2021/12/24 10:28:58;;;;;;;;;;;8.70;99.90;;;;;;5094894;27;20010;-72
2021/12/24 10:31:30;;;;;;;;;;;8.70;99.90;;;;;;5093276;28;19928;-72
2021/12/24 10:34:26;;;;;;;;;;;8.80;99.90;;;;;;5097262;27;20365;-69
2021/12/24 10:36:54;;;;;;;;;;;8.70;99.90;;;;;;5085537;28;19924;-70
2021/12/24 10:39:26;;;;;;;;;;;8.60;99.90;;;;;;5078475;28;20283;-70
2021/12/24 10:41:56;;;;;;;;;;;8.60;99.90;;;;;;5082673;28;19969;-70
2021/12/24 10:44:24;;;;;;;;;;;8.40;99.90;;;;;;5068904;28;19924;-70
2021/12/24 10:47:01;;;;;;;;;;;8.40;99.90;;;;;;5080638;28;19920;-70
2021/12/24 10:52:28;;;;;;;;;;;8.30;99.90;;;;;;5078396;28;19956;-70
2021/12/24 10:55:03;;;;;;;;;;;8.30;99.90;;;;;;5076029;28;20408;-70
2021/12/24 10:57:31;;;;;;;;;;;8.30;99.90;;;;;;5082296;28;19927;-70
2021/12/24 11:00:00;;;;;;;;;;;8.30;99.90;;;;;;5079649;28;20376;-70
2021/12/24 11:02:28;;;;;;;;;;;8.20;99.90;;;;;;5081967;28;19931;-70
2021/12/24 11:04:55;;;;;;;;;;;8.20;99.90;;;;;;5084264;28;19932;-71
2021/12/24 11:07:34;;;;;;;;;;;8.20;99.90;;;;;;5082751;28;19930;-70
2021/12/24 11:10:20;;;;;;;;;;;8.20;99.90;;;;;;5074452;28;19932;-70
2021/12/24 11:12:47;;;;;;;;;;;8.20;99.90;;;;;;5087985;27;20401;-70
2021/12/24 11:15:17;;;;;;;;;;;8.10;99.90;;;;;;5095377;27;20263;-71
2021/12/24 11:17:44;;;;;;;;;;;8.10;99.90;;;;;;5095968;28;20350;-71
2021/12/24 11:20:11;;;;;;;;;;;8.10;99.90;;;;;;5098531;27;19926;-72
2021/12/24 11:22:49;;;;;;;;;;;8.20;99.90;;;;;;5104701;27;19920;-71
2021/12/24 11:25:15;;;;;;;;;;;8.20;99.90;;;;;;5095867;27;19931;-71
2021/12/24 11:27:42;;;;;;;;;;;8.30;99.90;;;;;;5102881;27;19928;-71
2021/12/24 11:30:09;;;;;;;;;;;8.40;99.90;;;;;;5098083;28;19919;-71
2021/12/24 11:32:36;;;;;;;;;;;8.40;99.90;;;;;;5091648;28;19950;-71
2021/12/24 11:35:03;;;;;;;;;;;8.50;99.90;;;;;;5087948;28;19934;-71
2021/12/24 11:37:30;;;;;;;;;;;8.50;99.90;;;;;;5093225;28;19924;-71
2021/12/24 11:39:58;;;;;;;;;;;8.40;99.90;;;;;;5097428;28;21056;-71
2021/12/24 11:42:28;;;;;;;;;;;8.40;99.90;;;;;;5092188;28;19938;-71
2021/12/24 11:44:55;;;;;;;;;;;8.40;99.90;;;;;;5100738;28;19924;-71
2021/12/24 11:47:22;;;;;;;;;;;8.40;99.90;;;;;;5100913;27;19928;-71
2021/12/24 11:49:48;;;;;;;;;;;8.30;99.90;;;;;;5091102;28;19919;-71
2021/12/24 11:52:15;;;;;;;;;;;8.30;99.90;;;;;;5098766;28;19919;-71
2021/12/24 11:54:43;;;;;;;;;;;8.30;99.90;;;;;;5093266;28;20549;-71
2021/12/24 11:57:17;;;;;;;;;;;8.30;99.90;;;;;;5101712;27;19966;-71
2021/12/24 11:59:47;;;;;;;;;;;8.40;99.90;;;;;;5101455;28;20026;-71
2021/12/24 12:02:32;;;;;;;;;;;8.50;99.90;;;;;;5090880;28;20377;-72
2021/12/24 12:05:09;;;;;;;;;;;8.50;99.90;;;;;;5101298;27;20386;-72
2021/12/24 12:07:37;;;;;;;;;;;8.60;99.90;;;;;;5099322;27;19926;-72
2021/12/24 12:10:04;;;;;;;;;;;8.80;99.90;;;;;;5099407;27;20732;-72
2021/12/24 12:12:34;;;;;;;;;;;8.80;99.90;;;;;;5088211;28;19930;-72
2021/12/24 12:15:20;;;;;;;;;;;8.80;99.90;;;;;;5096174;28;19919;-72
2021/12/24 12:17:51;;;;;;;;;;;8.70;99.90;;;;;;5094634;27;19920;-71
2021/12/24 12:20:47;;;;;;;;;;;8.60;99.90;;;;;;5100454;28;19920;-71
2021/12/24 12:23:35;;;;;;;;;;;8.50;99.90;;;;;;5092393;28;20041;-72
2021/12/24 12:26:02;;;;;;;;;;;8.40;99.90;;;;;;5092313;28;19924;-71
2021/12/24 12:28:28;;;;;;;;;;;8.20;99.90;;;;;;5094087;28;20555;-72
2021/12/24 12:30:58;;;;;;;;;;;8.20;99.90;;;;;;5094814;28;19919;-71
2021/12/24 12:33:32;;;;;;;;;;;8.00;99.90;;;;;;5092226;28;20362;-72
2021/12/24 12:36:02;;;;;;;;;;;8.00;99.90;;;;;;5093530;28;20014;-72
2021/12/24 12:38:36;;;;;;;;;;;7.90;99.90;;;;;;5100742;28;21048;-71
2021/12/24 12:41:19;;;;;;;;;;;7.90;99.90;;;;;;5094405;28;20086;-72
2021/12/24 12:43:46;;;;;;;;;;;7.90;99.90;;;;;;5092434;28;20014;-72
2021/12/24 12:46:30;;;;;;;;;;;7.90;99.90;;;;;;5097789;28;20288;-72
2021/12/24 12:48:59;;;;;;;;;;;7.90;99.90;;;;;;5097054;27;20318;-72
2021/12/24 12:51:48;;;;;;;;;;;7.90;99.90;;;;;;5101335;27;20944;-72
2021/12/24 12:54:33;;;;;;;;;;;7.90;99.90;;;;;;5095149;28;19924;-72
2021/12/24 12:57:14;;;;;;;;;;;7.90;99.90;;;;;;5088982;28;19958;-72
2021/12/24 13:00:06;;;;;;;;;;;7.80;99.90;;;;;;5092225;28;19969;-72
2021/12/24 13:02:52;;;;;;;;;;;7.80;99.90;;;;;;5087792;28;19924;-72
2021/12/24 13:05:22;;;;;;;;;;;7.80;99.90;;;;;;5095616;28;19919;-72
2021/12/24 13:07:48;;;;;;;;;;;7.70;99.90;;;;;;5096661;28;19927;-72
2021/12/24 13:10:17;;;;;;;;;;;7.70;99.90;;;;;;5090639;28;19923;-72
2021/12/24 13:12:46;;;;;;;;;;;7.70;99.90;;;;;;5093383;28;20011;-72
2021/12/24 13:15:16;;;;;;;;;;;7.60;99.90;;;;;;5092525;28;20449;-72
2021/12/24 13:17:48;;;;;;;;;;;7.60;99.90;;;;;;5095535;28;19942;-72
2021/12/24 13:22:27;;;;;;;;;;;7.60;99.90;;;;;;5089322;28;19931;-72
2021/12/24 13:23:02;;;;;;;;;;;7.50;99.90;;;;;;5089609;28;20026;-72
2021/12/24 13:25:29;;;;;;;;;;;7.60;99.90;;;;;;5084223;28;19931;-72
2021/12/24 13:27:57;;;;;;;;;;;7.70;99.90;;;;;;5094534;28;19920;-72
2021/12/24 13:30:25;;;;;;;;;;;7.60;99.90;;;;;;5089003;28;19926;-72
2021/12/24 13:33:11;;;;;;;;;;;7.60;99.90;;;;;;5087549;28;19920;-72
2021/12/24 13:35:43;;;;;;;;;;;7.60;99.90;;;;;;5088204;28;19920;-72
2021/12/24 13:38:28;;;;;;;;;;;7.60;99.90;;;;;;5090596;28;20015;-72
2021/12/24 13:40:55;;;;;;;;;;;7.70;99.90;;;;;;5085604;28;19923;-72
2021/12/24 13:43:26;;;;;;;;;;;7.80;99.90;;;;;;5088429;28;20010;-72
2021/12/24 13:45:54;;;;;;;;;;;7.90;99.90;;;;;;5093357;28;20605;-72
2021/12/24 13:48:42;;;;;;;;;;;7.90;99.90;;;;;;5086817;28;20293;-72
2021/12/24 13:56:42;;;;;;;;;;;7.80;99.90;;;;;;5101406;27;20694;-72
2021/12/24 13:59:09;;;;;;;;;;;7.70;99.90;;;;;;5096885;28;20255;-72
2021/12/24 14:01:38;;;;;;;;;;;7.70;99.90;;;;;;5091520;28;20600;-72
2021/12/24 14:04:06;;;;;;;;;;;7.70;99.90;;;;;;5091370;28;20002;-72
2021/12/24 14:06:33;;;;;;;;;;;7.70;99.90;;;;;;5097364;27;19928;-72
2021/12/24 14:09:20;;;;;;;;;;;7.70;99.90;;;;;;5089380;28;19953;-72
2021/12/24 14:11:48;;;;;;;;;;;7.70;99.90;;;;;;5096757;28;20357;-72
2021/12/24 14:14:21;;;;;;;;;;;7.60;99.90;;;;;;5095153;28;20384;-73
2021/12/24 14:17:21;;;;;;;;;;;7.60;99.90;;;;;;5092880;28;19926;-73
2021/12/24 14:20:05;;;;;;;;;;;7.60;99.90;;;;;;5093561;28;19924;-72
2021/12/24 14:22:34;;;;;;;;;;;7.60;99.90;;;;;;5096492;28;19946;-72
2021/12/24 14:25:10;;;;;;;;;;;7.50;99.90;;;;;;5097916;28;20346;-72
2021/12/24 14:27:38;;;;;;;;;;;7.50;99.90;;;;;;5094986;28;20006;-73
2021/12/24 14:30:05;;;;;;;;;;;7.50;99.90;;;;;;5095276;28;19962;-73
2021/12/24 14:32:33;;;;;;;;;;;7.50;99.90;;;;;;5089118;28;19928;-73
2021/12/24 14:35:16;;;;;;;;;;;7.40;99.90;;;;;;5094825;27;19919;-73
2021/12/24 14:37:52;;;;;;;;;;;7.40;99.90;;;;;;5103118;28;19931;-72
2021/12/24 14:40:19;;;;;;;;;;;7.40;99.90;;;;;;5088162;28;19967;-73
2021/12/24 14:42:47;;;;;;;;;;;7.30;99.90;;;;;;5094628;28;20460;-73
2021/12/24 14:45:13;;;;;;;;;;;7.30;99.90;;;;;;5102335;27;20385;-73
2021/12/24 14:47:41;;;;;;;;;;;7.20;99.90;;;;;;5092539;28;19987;-73
2021/12/24 14:50:10;;;;;;;;;;;7.20;99.90;;;;;;5099855;27;19928;-73
2021/12/24 14:52:38;;;;;;;;;;;7.20;99.90;;;;;;5104431;27;19978;-73
2021/12/24 14:55:16;;;;;;;;;;;7.10;99.90;;;;;;5093984;28;19923;-73
2021/12/24 14:57:47;;;;;;;;;;;7.10;99.90;;;;;;5080669;28;20185;-73
2021/12/24 15:00:16;;;;;;;;;;;7.10;99.90;;;;;;5091591;28;20026;-73
2021/12/24 15:02:46;;;;;;;;;;;7.10;99.90;;;;;;5091156;27;20003;-73
2021/12/24 15:05:23;;;;;;;;;;;7.10;99.90;;;;;;5097194;27;19980;-73
2021/12/24 15:07:50;;;;;;;;;;;7.10;99.90;;;;;;5102952;27;19926;-74
2021/12/24 15:10:18;;;;;;;;;;;7.10;99.90;;;;;;5098363;28;19926;-73
2021/12/24 15:12:48;;;;;;;;;;;7.00;99.90;;;;;;5088503;27;20589;-74
2021/12/24 15:15:16;;;;;;;;;;;7.00;99.90;;;;;;5095521;28;19996;-73
2021/12/24 15:17:49;;;;;;;;;;;7.00;99.90;;;;;;5096818;28;20011;-73
2021/12/24 15:20:16;;;;;;;;;;;7.00;99.90;;;;;;5102472;28;20407;-73
2021/12/24 15:22:42;;;;;;;;;;;7.00;99.90;;;;;;5094937;28;20010;-73
2021/12/24 15:25:11;;;;;;;;;;;7.00;99.90;;;;;;5093785;28;20338;-73
2021/12/24 15:27:38;;;;;;;;;;;7.00;99.90;;;;;;5096479;28;19966;-73
2021/12/24 15:30:06;;;;;;;;;;;7.00;99.90;;;;;;5103371;28;19933;-71
2021/12/24 15:32:42;;;;;;;;;;;7.00;99.90;;;;;;5090990;28;20007;-71
2021/12/24 15:35:09;;;;;;;;;;;7.00;99.90;;;;;;5095802;28;19967;-74
2021/12/24 15:37:36;;;;;;;;;;;7.00;99.90;;;;;;5084430;28;19963;-74
2021/12/24 15:40:03;;;;;;;;;;;7.00;99.90;;;;;;5096685;28;19941;-74
2021/12/24 15:42:29;;;;;;;;;;;7.00;99.90;;;;;;5093471;27;19935;-74
2021/12/24 15:44:56;;;;;;;;;;;7.00;99.90;;;;;;5101606;27;20006;-74
2021/12/24 15:47:28;;;;;;;;;;;7.00;99.90;;;;;;5095298;28;19920;-74
2021/12/24 15:49:55;;;;;;;;;;;7.00;99.90;;;;;;5096035;28;19924;-74
2021/12/24 15:52:22;;;;;;;;;;;7.00;99.90;;;;;;5096715;28;20394;-74
2021/12/24 15:54:49;;;;;;;;;;;7.00;99.90;;;;;;5101768;28;19920;-75
2021/12/24 15:57:18;;;;;;;;;;;7.00;99.90;;;;;;5092775;28;19920;-75
2021/12/24 15:59:45;;;;;;;;;;;7.00;99.90;;;;;;5104159;27;19998;-75
2021/12/24 16:02:12;;;;;;;;;;;7.00;99.90;;;;;;5098173;28;20373;-75
2021/12/24 16:04:39;;;;;;;;;;;6.90;99.90;;;;;;5095483;28;19953;-75
2021/12/24 16:07:06;;;;;;;;;;;7.00;99.90;;;;;;5085698;27;19920;-74
2021/12/24 16:09:32;;;;;;;;;;;7.00;99.90;;;;;;5096116;28;20296;-75
2021/12/24 16:11:59;;;;;;;;;;;7.00;99.90;;;;;;5090176;28;19919;-75
2021/12/24 16:14:27;;;;;;;;;;;6.90;99.90;;;;;;5097578;27;20026;-75
2021/12/24 16:16:54;;;;;;;;;;;6.80;99.90;;;;;;5092206;28;20341;-75
2021/12/24 16:19:22;;;;;;;;;;;6.80;99.90;;;;;;5095854;27;19926;-75
2021/12/24 16:21:50;;;;;;;;;;;6.80;99.90;;;;;;5096051;27;19930;-75
2021/12/24 16:24:19;;;;;;;;;;;6.80;99.90;;;;;;5087970;28;20408;-75
2021/12/24 16:26:46;;;;;;;;;;;6.80;99.90;;;;;;5095985;28;19927;-74
2021/12/24 16:29:17;;;;;;;;;;;6.80;99.90;;;;;;5095958;28;19927;-75
2021/12/24 16:31:45;;;;;;;;;;;6.80;99.90;;;;;;5092383;28;20264;-74
2021/12/24 16:34:12;;;;;;;;;;;6.80;99.90;;;;;;5090874;28;19927;-75